Map

Track Data

SID SEASON NUMBER BASIN SUBBASIN NAME ISO_TIME NATURE LAT LON WMO_WIND WMO_PRES WMO_AGENCY TRACK_TYPE DIST2LAND LANDFALL IFLAG USA_AGENCY USA_ATCF_ID USA_LAT USA_LON USA_RECORD USA_STATUS USA_WIND USA_PRES USA_SSHS USA_R34_NE USA_R34_SE USA_R34_SW USA_R34_NW USA_R50_NE USA_R50_SE USA_R50_SW USA_R50_NW USA_R64_NE USA_R64_SE USA_R64_SW USA_R64_NW USA_POCI USA_ROCI USA_RMW USA_EYE TOKYO_LAT TOKYO_LON TOKYO_GRADE TOKYO_WIND TOKYO_PRES TOKYO_R50_DIR TOKYO_R50_LONG TOKYO_R50_SHORT TOKYO_R30_DIR TOKYO_R30_LONG TOKYO_R30_SHORT TOKYO_LAND CMA_LAT CMA_LON CMA_CAT CMA_WIND CMA_PRES HKO_LAT HKO_LON HKO_CAT HKO_WIND HKO_PRES NEWDELHI_LAT NEWDELHI_LON NEWDELHI_GRADE NEWDELHI_WIND NEWDELHI_PRES NEWDELHI_CI NEWDELHI_DP NEWDELHI_POCI REUNION_LAT REUNION_LON REUNION_TYPE REUNION_WIND REUNION_PRES REUNION_TNUM REUNION_CI REUNION_RMW REUNION_R34_NE REUNION_R34_SE REUNION_R34_SW REUNION_R34_NW REUNION_R50_NE REUNION_R50_SE REUNION_R50_SW REUNION_R50_NW REUNION_R64_NE REUNION_R64_SE REUNION_R64_SW REUNION_R64_NW BOM_LAT BOM_LON BOM_TYPE BOM_WIND BOM_PRES BOM_TNUM BOM_CI BOM_RMW BOM_R34_NE BOM_R34_SE BOM_R34_SW BOM_R34_NW BOM_R50_NE BOM_R50_SE BOM_R50_SW BOM_R50_NW BOM_R64_NE BOM_R64_SE BOM_R64_SW BOM_R64_NW BOM_ROCI BOM_POCI BOM_EYE BOM_POS_METHOD BOM_PRES_METHOD NADI_LAT NADI_LON NADI_CAT NADI_WIND NADI_PRES WELLINGTON_LAT WELLINGTON_LON WELLINGTON_WIND WELLINGTON_PRES DS824_LAT DS824_LON DS824_STAGE DS824_WIND DS824_PRES TD9636_LAT TD9636_LON TD9636_STAGE TD9636_WIND TD9636_PRES TD9635_LAT TD9635_LON TD9635_WIND TD9635_PRES TD9635_ROCI NEUMANN_LAT NEUMANN_LON NEUMANN_CLASS NEUMANN_WIND NEUMANN_PRES MLC_LAT MLC_LON MLC_CLASS MLC_WIND MLC_PRES USA_GUST BOM_GUST BOM_GUST_PER REUNION_GUST REUNION_GUST_PER USA_SEAHGT USA_SEARAD_NE USA_SEARAD_SE USA_SEARAD_SW USA_SEARAD_NW STORM_SPEED STORM_DIR
2022234N25152 2022 51 WP MM TOKAGE 2022-08-22 06:00:00 NR 24.9000 151.700 PROVISIONAL 1579 1528 O_____________ tcvitals WP112022 24.9000 151.700 39 998 0 55 55 1006 200 30 12 2
2022234N25152 2022 51 WP MM TOKAGE 2022-08-22 09:00:00 NR 25.5150 151.730 PROVISIONAL 1528 1479 P_____________ WP112022 25.5150 151.730 42 998 0 57 57 1007 200 30 12 1
2022234N25152 2022 51 WP MM TOKAGE 2022-08-22 12:00:00 NR 26.1000 151.700 PROVISIONAL 1479 1433 O_____________ tcvitals WP112022 26.1000 151.700 45 998 0 60 60 1009 200 30 11 352
2022234N25152 2022 51 WP MM TOKAGE 2022-08-22 15:00:00 NR 26.6424 151.560 PROVISIONAL 1433 1365 P_____________ WP112022 26.6424 151.560 49 997 0 67 62 1009 205 27 12 342
2022234N25152 2022 51 WP MM TOKAGE 2022-08-22 18:00:00 NR 27.2000 151.300 PROVISIONAL 1365 1289 O_____________ tcvitals WP112022 27.2000 151.300 54 996 0 75 65 50 60 1009 210 25 13 334
2022234N25152 2022 51 WP MM TOKAGE 2022-08-22 21:00:00 NR 27.8052 150.922 PROVISIONAL 1289 1207 P_____________ WP112022 27.8052 150.922 57 991 0 92 70 55 62 1009 210 25 15 331
2022234N25152 2022 51 WP MM TOKAGE 2022-08-23 00:00:00 NR 28.5000 150.500 PROVISIONAL 1207 1124 O_____________ tcvitals WP112022 28.5000 150.500 60 987 0 110 75 60 65 1009 210 25 17 336
2022234N25152 2022 51 WP MM TOKAGE 2022-08-23 03:00:00 NR 29.3423 150.150 PROVISIONAL 1117 1030 P_____________ WP112022 29.3423 150.150 62 984 0 112 87 65 70 1008 195 19 18 340
2022234N25152 2022 51 WP MM TOKAGE 2022-08-23 06:00:00 NR 30.2000 149.800 PROVISIONAL 1030 952 O_____________ tcvitals WP112022 30.2000 149.800 64 982 1 115 100 70 75 1008 180 14 17 337
2022234N25152 2022 51 WP MM TOKAGE 2022-08-23 09:00:00 NR 30.9226 149.385 PROVISIONAL 952 876 P_____________ WP112022 30.9226 149.385 72 976 1 115 105 65 82 1008 180 9 16 334
2022234N25152 2022 51 WP MM TOKAGE 2022-08-23 12:00:00 NR 31.6000 149.000 PROVISIONAL 876 811 O_____________ tcvitals WP112022 31.6000 149.000 80 971 1 115 110 60 90 1008 180 5 15 337
2022234N25152 2022 51 WP MM TOKAGE 2022-08-23 15:00:00 NR 32.3224 148.683 PROVISIONAL 811 758 P_____________ WP112022 32.3224 148.683 84 967 2 110 118 67 77 1008 180 5 15 343
2022234N25152 2022 51 WP MM TOKAGE 2022-08-23 18:00:00 NR 33.0000 148.500 PROVISIONAL 758 735 O_____________ tcvitals WP112022 33.0000 148.500 89 963 2 105 126 75 65 1008 180 5 13 352
2022234N25152 2022 51 WP MM TOKAGE 2022-08-23 21:00:00 NR 33.5723 148.482 PROVISIONAL 731 720 P_____________ WP112022 33.5723 148.482 91 959 2 115 123 82 77 1007 160 5 11 4
2022234N25152 2022 51 WP MM TOKAGE 2022-08-24 00:00:00 NR 34.1000 148.600 PROVISIONAL 722 716 O_____________ tcvitals WP112022 34.1000 148.600 93 956 2 126 120 90 90 1007 140 5 11 12
2022234N25152 2022 51 WP MM TOKAGE 2022-08-24 03:00:00 NR 34.6575 148.763 PROVISIONAL 724 720 P_____________ WP112022 34.6575 148.763 91 957 2 128 125 97 92 1007 140 8 12 17
2022234N25152 2022 51 WP MM TOKAGE 2022-08-24 06:00:00 NR 35.2000 149.000 PROVISIONAL 733 732 O_____________ tcvitals WP112022 35.2000 149.000 89 959 2 130 130 105 95 1007 140 12 11 21
2022234N25152 2022 51 WP MM TOKAGE 2022-08-24 09:00:00 NR 35.7149 149.270 PROVISIONAL 748 743 P_____________ WP112022 35.7149 149.270 84 962 2 128 130 107 97 1007 140 12 11 26
2022234N25152 2022 51 WP MM TOKAGE 2022-08-24 12:00:00 NR 36.2000 149.600 PROVISIONAL 752 748 O_____________ tcvitals WP112022 36.2000 149.600 80 965 1 126 130 110 100 1007 140 12 11 32
2022234N25152 2022 51 WP MM TOKAGE 2022-08-24 15:00:00 NR 36.6048 149.964 PROVISIONAL 761 756 P_____________ WP112022 36.6048 149.964 77 966 1 105 122 107 100 1006 130 12 11 35
2022234N25152 2022 51 WP MM TOKAGE 2022-08-24 18:00:00 NR 37.1000 150.400 PROVISIONAL 769 753 O_____________ tcvitals WP112022 37.1000 150.400 74 968 1 85 115 105 100 1006 120 12 14 32
2022234N25152 2022 51 WP MM TOKAGE 2022-08-24 21:00:00 NR 37.8399 150.913 PROVISIONAL 753 708 P_____________ WP112022 37.8399 150.913 72 970 1 97 117 100 87 1006 130 12 18 28
2022234N25152 2022 51 WP MM TOKAGE 2022-08-25 00:00:00 NR 38.7000 151.500 PROVISIONAL 708 679 O_____________ tcvitals WP112022 38.7000 151.500 70 973 1 110 120 95 75 1007 140 12 19 28
2022234N25152 2022 51 WP MM TOKAGE 2022-08-25 03:00:00 NR 39.5186 152.072 PROVISIONAL 685 637 P_____________ WP112022 39.5186 152.072 62 977 0 110 120 97 75 1007 140 28 20 31
2022234N25152 2022 51 WP MM TOKAGE 2022-08-25 06:00:00 NR 40.4000 152.800 PROVISIONAL 630 576 O_____________ tcvitals WP112022 40.4000 152.800 54 982 0 110 120 100 75 1007 140 45 23 35
2022234N25152 2022 51 WP MM TOKAGE 2022-08-25 09:00:00 NR 41.3759 153.805 PROVISIONAL 571 547 P_____________ WP112022 41.3759 153.805 49 985 0 107 140 1008 147 45 26 40
2022234N25152 2022 51 WP MM TOKAGE 2022-08-25 12:00:00 NR 42.4000 155.000 PROVISIONAL 547 O_____________ tcvitals WP112022 42.4000 155.000 45 988 0 105 160 1009 155 45 27 41

Digital Typhoon Data and Search

About IBTrACS Database

This database is a web-friendly format of International Best Track Archive for Climate Stewardship (IBTrACS), a global best track data archive curated by NOAA dating back to 1842.

Updated: 2022-10-05